Time;durP1;ratioP1;P1;durP2;ratioP2;P2;SDS_P1;SDS_P2;PMS_P1;PMS_P2;Temp;Humidity;BMP_temperature;BMP_pressure;BME280_temperature;BME280_humidity;BME280_pressure;Samples;Min_cycle;Max_cycle;Signal;HPM_P1;HPM_P2
2022/06/08 00:00:26;;;;;;;3.05;2.20;;;;;;;;;;4989077;28;20341;-67
2022/06/08 00:02:55;;;;;;;3.38;2.20;;;;;;;;;;4987866;28;20436;-67
2022/06/08 00:05:21;;;;;;;2.20;2.00;;;;;;;;;;4987430;28;20025;-67
2022/06/08 00:07:46;;;;;;;2.53;2.33;;;;;;;;;;4988773;28;20048;-66
2022/06/08 00:10:12;;;;;;;5.22;2.10;;;;;;;;;;4989016;28;20525;-66
2022/06/08 00:12:38;;;;;;;3.35;2.10;;;;;;;;;;4988351;28;20025;-67
2022/06/08 00:15:06;;;;;;;3.55;2.20;;;;;;;;;;4987965;28;20324;-67
2022/06/08 00:17:31;;;;;;;4.13;2.27;;;;;;;;;;4988676;28;20485;-67
2022/06/08 00:19:57;;;;;;;3.28;2.50;;;;;;;;;;4988413;28;20359;-66
2022/06/08 00:22:22;;;;;;;3.25;2.05;;;;;;;;;;4988862;28;20420;-67
2022/06/08 00:24:48;;;;;;;2.30;2.03;;;;;;;;;;4988535;28;20029;-67
2022/06/08 00:27:13;;;;;;;4.15;2.63;;;;;;;;;;4971107;28;20451;-71
2022/06/08 00:29:39;;;;;;;3.28;2.45;;;;;;;;;;4988981;28;20316;-68
2022/06/08 00:32:04;;;;;;;3.75;2.28;;;;;;;;;;4988527;28;20386;-67
2022/06/08 00:34:30;;;;;;;2.53;1.92;;;;;;;;;;4988778;28;20453;-68
2022/06/08 00:36:55;;;;;;;3.33;2.20;;;;;;;;;;4989216;28;20490;-67
2022/06/08 00:39:21;;;;;;;3.72;2.70;;;;;;;;;;4989455;28;20430;-67
2022/06/08 00:41:50;;;;;;;3.05;2.20;;;;;;;;;;4988574;28;20461;-68
2022/06/08 00:44:30;;;;;;;3.38;2.15;;;;;;;;;;4988789;28;20408;-67
2022/06/08 00:46:57;;;;;;;2.63;2.30;;;;;;;;;;4987261;28;20485;-67
2022/06/08 00:49:26;;;;;;;2.47;2.10;;;;;;;;;;4986588;28;20449;-67
2022/06/08 00:51:51;;;;;;;4.72;2.20;;;;;;;;;;4986697;28;20025;-67
2022/06/08 00:54:26;;;;;;;3.25;2.13;;;;;;;;;;4987469;28;20036;-67
2022/06/08 00:56:56;;;;;;;3.75;2.15;;;;;;;;;;4986564;28;20029;-67
2022/06/08 00:59:22;;;;;;;3.67;2.17;;;;;;;;;;4988506;28;20447;-67
2022/06/08 01:01:47;;;;;;;4.38;2.50;;;;;;;;;;4985125;28;20380;-67
2022/06/08 01:04:15;;;;;;;2.17;1.85;;;;;;;;;;4990248;28;20454;-68
2022/06/08 01:06:42;;;;;;;3.37;2.40;;;;;;;;;;4993152;28;20025;-67
2022/06/08 01:09:16;;;;;;;3.17;2.40;;;;;;;;;;4991172;28;20420;-68
2022/06/08 01:11:43;;;;;;;3.15;2.22;;;;;;;;;;4990638;28;20383;-67
2022/06/08 01:14:14;;;;;;;4.78;2.35;;;;;;;;;;4990899;28;20508;-68
2022/06/08 01:16:43;;;;;;;4.22;2.53;;;;;;;;;;4990756;28;20028;-67
2022/06/08 01:19:08;;;;;;;;;;;;;;;;;;4991163;28;20394;-70
2022/06/08 01:21:34;;;;;;;6.18;2.40;;;;;;;;;;4991898;28;20507;-67
2022/06/08 01:24:05;;;;;;;2.42;1.90;;;;;;;;;;4991614;28;20424;-67
2022/06/08 01:27:11;;;;;;;3.80;2.35;;;;;;;;;;4991319;28;20321;-68
2022/06/08 01:30:18;;;;;;;3.10;2.30;;;;;;;;;;4989867;28;20028;-67
2022/06/08 01:32:47;;;;;;;3.67;3.25;;;;;;;;;;4969795;28;20424;-69
2022/06/08 01:35:12;;;;;;;2.90;2.30;;;;;;;;;;4991663;28;20462;-68
2022/06/08 01:37:40;;;;;;;3.00;2.45;;;;;;;;;;4991258;28;20441;-67
2022/06/08 01:40:30;;;;;;;3.40;2.20;;;;;;;;;;4991545;28;20443;-67
2022/06/08 01:43:33;;;;;;;2.38;1.95;;;;;;;;;;4992745;28;20420;-67
2022/06/08 01:46:17;;;;;;;2.95;2.28;;;;;;;;;;4991668;28;20448;-66
2022/06/08 01:48:45;;;;;;;4.40;2.70;;;;;;;;;;4989806;28;20061;-68
2022/06/08 01:51:20;;;;;;;3.22;2.50;;;;;;;;;;4991480;28;20570;-67
2022/06/08 01:53:51;;;;;;;3.15;2.15;;;;;;;;;;4991052;28;20355;-68
2022/06/08 01:56:33;;;;;;;4.10;2.67;;;;;;;;;;4989602;28;20356;-67
2022/06/08 01:59:17;;;;;;;2.78;2.47;;;;;;;;;;4991273;28;20442;-68
2022/06/08 02:01:50;;;;;;;3.00;2.33;;;;;;;;;;4991638;28;20423;-67
2022/06/08 02:04:27;;;;;;;4.47;3.05;;;;;;;;;;4989979;28;20372;-67
2022/06/08 02:07:36;;;;;;;3.50;2.63;;;;;;;;;;4990825;28;20364;-66
2022/06/08 02:10:01;;;;;;;;;;;;;;;;;;4985931;28;20462;-67
2022/06/08 02:12:30;;;;;;;3.35;1.88;;;;;;;;;;4991886;28;20303;-67
2022/06/08 02:15:01;;;;;;;2.83;2.38;;;;;;;;;;4988952;28;20431;-67
2022/06/08 02:17:32;;;;;;;5.07;3.22;;;;;;;;;;4989236;28;20450;-66
2022/06/08 02:20:31;;;;;;;2.95;2.50;;;;;;;;;;4989586;28;20420;-67
2022/06/08 02:23:12;;;;;;;3.53;2.15;;;;;;;;;;4990324;28;20570;-67
2022/06/08 02:25:54;;;;;;;4.10;2.85;;;;;;;;;;4989424;28;20033;-67
2022/06/08 02:28:29;;;;;;;4.43;2.70;;;;;;;;;;4988995;28;20344;-68
2022/06/08 02:31:06;;;;;;;3.65;2.88;;;;;;;;;;4988890;28;20347;-67
2022/06/08 02:36:22;;;;;;;4.10;2.83;;;;;;;;;;4989623;28;20173;-67
2022/06/08 02:38:54;;;;;;;2.88;2.20;;;;;;;;;;4990794;28;20028;-67
2022/06/08 02:41:21;;;;;;;3.25;2.75;;;;;;;;;;4988819;28;20345;-67
2022/06/08 02:43:50;;;;;;;4.53;2.60;;;;;;;;;;4990347;28;20392;-68
2022/06/08 02:46:24;;;;;;;3.08;2.50;;;;;;;;;;4991327;28;20390;-69
2022/06/08 02:48:49;;;;;;;2.63;2.22;;;;;;;;;;4989271;28;20442;-68
2022/06/08 02:51:16;;;;;;;3.15;2.72;;;;;;;;;;4988994;28;20450;-68
2022/06/08 02:53:56;;;;;;;3.13;2.58;;;;;;;;;;4988661;28;20378;-68
2022/06/08 02:56:31;;;;;;;2.92;2.10;;;;;;;;;;4989766;28;20498;-67
2022/06/08 02:59:23;;;;;;;4.22;2.70;;;;;;;;;;4990075;28;20104;-67
2022/06/08 03:02:00;;;;;;;3.63;2.45;;;;;;;;;;4989512;28;20045;-67
2022/06/08 03:04:35;;;;;;;5.10;3.40;;;;;;;;;;4988467;28;20075;-67
2022/06/08 03:07:05;;;;;;;4.82;2.70;;;;;;;;;;4988308;28;20319;-67
2022/06/08 03:09:31;;;;;;;3.05;2.40;;;;;;;;;;4988284;28;20431;-67
2022/06/08 03:12:02;;;;;;;5.07;3.67;;;;;;;;;;4988203;28;20052;-67
2022/06/08 03:14:29;;;;;;;4.05;2.85;;;;;;;;;;4989609;28;20470;-67
2022/06/08 03:16:56;;;;;;;4.78;2.80;;;;;;;;;;4988123;28;20352;-67
2022/06/08 03:19:22;;;;;;;2.95;2.65;;;;;;;;;;4988308;28;20086;-67
2022/06/08 03:21:48;;;;;;;3.45;2.60;;;;;;;;;;4989627;28;20435;-67
2022/06/08 03:24:14;;;;;;;3.58;2.08;;;;;;;;;;4990556;28;20443;-67
2022/06/08 03:26:47;;;;;;;3.13;2.33;;;;;;;;;;4989020;28;20324;-67
2022/06/08 03:29:13;;;;;;;3.85;2.70;;;;;;;;;;4970955;28;20364;-67
2022/06/08 03:31:38;;;;;;;3.97;2.63;;;;;;;;;;4988144;28;20322;-67
2022/06/08 03:34:04;;;;;;;6.72;3.15;;;;;;;;;;4989304;28;20086;-67
2022/06/08 03:36:29;;;;;;;4.50;2.95;;;;;;;;;;4989771;28;20348;-67
2022/06/08 03:38:55;;;;;;;2.88;2.15;;;;;;;;;;4989059;28;20453;-67
2022/06/08 03:41:20;;;;;;;3.63;2.67;;;;;;;;;;4990724;28;20479;-68
2022/06/08 03:43:45;;;;;;;5.25;3.13;;;;;;;;;;4990239;28;20536;-68
2022/06/08 03:46:11;;;;;;;5.57;2.78;;;;;;;;;;4988847;28;20105;-67
2022/06/08 03:48:38;;;;;;;2.60;2.00;;;;;;;;;;4988074;28;20439;-67
2022/06/08 03:51:05;;;;;;;3.60;2.92;;;;;;;;;;4986623;28;20343;-67
2022/06/08 03:53:37;;;;;;;3.33;2.42;;;;;;;;;;4987303;28;20091;-68
2022/06/08 03:56:05;;;;;;;3.25;2.42;;;;;;;;;;4987663;28;20443;-67
2022/06/08 03:58:31;;;;;;;3.33;2.60;;;;;;;;;;4987551;28;20037;-67
2022/06/08 04:00:57;;;;;;;4.80;2.65;;;;;;;;;;4987511;28;20320;-68
2022/06/08 04:03:22;;;;;;;3.63;2.42;;;;;;;;;;4988978;28;20355;-68
2022/06/08 04:05:48;;;;;;;2.45;2.10;;;;;;;;;;4989994;28;20535;-68
2022/06/08 04:08:13;;;;;;;2.72;2.15;;;;;;;;;;4990736;28;20304;-68
2022/06/08 04:10:39;;;;;;;3.38;2.05;;;;;;;;;;4989656;28;20394;-67
2022/06/08 04:13:04;;;;;;;3.10;2.53;;;;;;;;;;4988790;28;20462;-68
2022/06/08 04:15:42;;;;;;;3.83;2.40;;;;;;;;;;4987908;28;20451;-67
2022/06/08 04:18:12;;;;;;;3.20;2.72;;;;;;;;;;4988770;28;20044;-67
2022/06/08 04:20:38;;;;;;;3.25;2.40;;;;;;;;;;4988193;28;20490;-67
2022/06/08 04:23:04;;;;;;;4.03;2.58;;;;;;;;;;4988573;28;20317;-68
2022/06/08 04:25:30;;;;;;;2.70;2.03;;;;;;;;;;4988613;28;20413;-68
2022/06/08 04:27:56;;;;;;;2.83;2.40;;;;;;;;;;4989422;28;20032;-69
2022/06/08 04:30:22;;;;;;;3.33;2.60;;;;;;;;;;4986913;28;20415;-68
2022/06/08 04:32:47;;;;;;;3.80;2.40;;;;;;;;;;4987073;28;20518;-68
2022/06/08 04:35:14;;;;;;;3.38;2.33;;;;;;;;;;4987348;28;20391;-67
2022/06/08 04:37:39;;;;;;;3.13;2.40;;;;;;;;;;4988695;28;20336;-68
2022/06/08 04:40:08;;;;;;;2.03;1.83;;;;;;;;;;4990340;28;20048;-67
2022/06/08 04:42:34;;;;;;;;;;;;;;;;;;4991398;28;20378;-68
2022/06/08 04:44:59;;;;;;;4.32;2.30;;;;;;;;;;4991229;28;19981;-67
2022/06/08 04:47:25;;;;;;;4.05;2.40;;;;;;;;;;4974583;28;20424;-68
2022/06/08 04:49:50;;;;;;;3.00;2.50;;;;;;;;;;4992589;28;20448;-68
2022/06/08 04:52:16;;;;;;;2.58;2.15;;;;;;;;;;4991397;28;20345;-67
2022/06/08 04:54:42;;;;;;;2.75;2.15;;;;;;;;;;4991141;28;20509;-67
2022/06/08 04:57:07;;;;;;;2.78;2.00;;;;;;;;;;4991368;28;20375;-68
2022/06/08 04:59:33;;;;;;;3.28;2.30;;;;;;;;;;4992368;28;20367;-67
2022/06/08 05:01:58;;;;;;;3.72;2.83;;;;;;;;;;4990710;28;20458;-67
2022/06/08 05:04:24;;;;;;;5.00;2.85;;;;;;;;;;4990685;28;20459;-68
2022/06/08 05:06:49;;;;;;;2.50;1.90;;;;;;;;;;4990647;28;20467;-68
2022/06/08 05:09:14;;;;;;;2.92;1.83;;;;;;;;;;4992626;28;20443;-67
2022/06/08 05:11:40;;;;;;;2.80;1.90;;;;;;;;;;4990892;28;20040;-67
2022/06/08 05:14:05;;;;;;;3.05;2.20;;;;;;;;;;4991768;28;20351;-67
2022/06/08 05:16:30;;;;;;;2.60;2.05;;;;;;;;;;4991776;28;20436;-67
2022/06/08 05:18:56;;;;;;;3.05;2.33;;;;;;;;;;4991684;28;20317;-66
2022/06/08 05:21:21;;;;;;;2.42;1.95;;;;;;;;;;4993998;28;20025;-66
2022/06/08 05:23:47;;;;;;;2.30;1.88;;;;;;;;;;4991756;28;20464;-67
2022/06/08 05:26:13;;;;;;;2.30;2.05;;;;;;;;;;4992567;28;20055;-67
2022/06/08 05:28:39;;;;;;;2.17;1.83;;;;;;;;;;4991615;28;20478;-67
2022/06/08 05:31:04;;;;;;;3.50;2.40;;;;;;;;;;4991248;28;20385;-67
2022/06/08 05:33:30;;;;;;;3.58;2.47;;;;;;;;;;4991815;28;20362;-67
2022/06/08 05:35:56;;;;;;;3.60;2.67;;;;;;;;;;4989910;28;20362;-67
2022/06/08 05:38:22;;;;;;;3.15;1.95;;;;;;;;;;4991970;28;20355;-67
2022/06/08 05:40:47;;;;;;;3.80;2.08;;;;;;;;;;4990645;28;20064;-68
2022/06/08 05:43:14;;;;;;;3.92;2.08;;;;;;;;;;4989821;28;20526;-67
2022/06/08 05:45:40;;;;;;;2.53;2.00;;;;;;;;;;4989465;28;20309;-67
2022/06/08 05:48:06;;;;;;;2.47;2.10;;;;;;;;;;4990287;28;20435;-67
2022/06/08 05:50:33;;;;;;;3.45;2.05;;;;;;;;;;4989978;28;20344;-67
2022/06/08 05:52:59;;;;;;;3.30;2.05;;;;;;;;;;4990336;28;20448;-67
2022/06/08 05:55:25;;;;;;;3.90;1.95;;;;;;;;;;4989420;28;20551;-68
2022/06/08 05:57:51;;;;;;;3.42;2.50;;;;;;;;;;4991543;28;20485;-67
2022/06/08 06:00:21;;;;;;;2.65;2.25;;;;;;;;;;4991223;28;20390;-68
2022/06/08 06:02:46;;;;;;;3.75;2.30;;;;;;;;;;4990848;28;20510;-68
2022/06/08 06:05:13;;;;;;;3.28;2.50;;;;;;;;;;4991092;28;20439;-67
2022/06/08 06:07:40;;;;;;;2.33;2.03;;;;;;;;;;4992607;28;20412;-67
2022/06/08 06:10:07;;;;;;;2.92;2.00;;;;;;;;;;4991295;28;20604;-68
2022/06/08 06:12:32;;;;;;;2.65;1.90;;;;;;;;;;4990804;28;20353;-70
2022/06/08 06:15:01;;;;;;;2.45;1.85;;;;;;;;;;4973807;28;20044;-67
2022/06/08 06:17:27;;;;;;;3.13;1.80;;;;;;;;;;4989119;28;20452;-67
2022/06/08 06:19:52;;;;;;;3.28;2.10;;;;;;;;;;4990701;28;20360;-67
2022/06/08 06:22:18;;;;;;;2.60;1.80;;;;;;;;;;4990770;28;20367;-68
2022/06/08 06:24:43;;;;;;;4.00;2.00;;;;;;;;;;4989262;28;20044;-68
2022/06/08 06:27:08;;;;;;;2.53;2.20;;;;;;;;;;4991467;28;20500;-67
2022/06/08 06:29:34;;;;;;;2.10;1.73;;;;;;;;;;4989930;28;20463;-67
2022/06/08 06:32:03;;;;;;;3.05;2.28;;;;;;;;;;4990875;28;20327;-67
2022/06/08 06:34:29;;;;;;;;;;;;;;;;;;4990391;28;20451;-68
2022/06/08 06:36:55;;;;;;;2.33;1.75;;;;;;;;;;4990295;28;20406;-67
2022/06/08 06:39:22;;;;;;;2.60;2.20;;;;;;;;;;4988788;28;20052;-68
2022/06/08 06:41:48;;;;;;;2.92;2.13;;;;;;;;;;4988638;28;20361;-68
2022/06/08 06:44:14;;;;;;;2.45;2.17;;;;;;;;;;4989274;28;20033;-67
2022/06/08 06:46:39;;;;;;;3.05;2.30;;;;;;;;;;4988479;28;20521;-68
2022/06/08 06:49:05;;;;;;;2.60;2.10;;;;;;;;;;4988215;28;20029;-68
2022/06/08 06:51:30;;;;;;;2.63;1.83;;;;;;;;;;4988735;28;20458;-68
2022/06/08 06:53:56;;;;;;;3.22;2.22;;;;;;;;;;4990050;28;20471;-68
2022/06/08 06:56:21;;;;;;;2.47;1.67;;;;;;;;;;4990852;28;20128;-68
2022/06/08 06:58:49;;;;;;;2.30;1.80;;;;;;;;;;4990226;28;20441;-67
2022/06/08 07:01:16;;;;;;;2.75;1.77;;;;;;;;;;4989891;28;20372;-68
2022/06/08 07:03:43;;;;;;;2.00;1.80;;;;;;;;;;4990353;28;20323;-68
2022/06/08 07:06:08;;;;;;;2.13;1.63;;;;;;;;;;4990652;28;20474;-68
2022/06/08 07:08:33;;;;;;;2.53;1.95;;;;;;;;;;4988815;28;20425;-68
2022/06/08 07:13:43;;;;;;;2.20;1.85;;;;;;;;;;4989814;28;20600;-68
2022/06/08 07:16:08;;;;;;;3.40;2.03;;;;;;;;;;4989693;28;20391;-67
2022/06/08 07:18:34;;;;;;;3.38;2.15;;;;;;;;;;4987962;28;20375;-67
2022/06/08 07:21:00;;;;;;;2.17;1.63;;;;;;;;;;4987933;28;20450;-68
2022/06/08 07:23:25;;;;;;;2.50;1.95;;;;;;;;;;4988293;28;20025;-68
2022/06/08 07:25:51;;;;;;;2.28;1.77;;;;;;;;;;4989548;28;20037;-68
2022/06/08 07:28:16;;;;;;;2.00;1.65;;;;;;;;;;4989586;28;20351;-68
2022/06/08 07:30:42;;;;;;;2.15;1.70;;;;;;;;;;4989213;28;20355;-68
2022/06/08 07:33:07;;;;;;;1.83;1.50;;;;;;;;;;4988760;28;20400;-68
2022/06/08 07:35:32;;;;;;;2.22;1.60;;;;;;;;;;4989499;28;20441;-68
2022/06/08 07:37:58;;;;;;;2.22;1.90;;;;;;;;;;4989416;28;20436;-68
2022/06/08 07:40:23;;;;;;;2.40;1.90;;;;;;;;;;4989430;28;20454;-68
2022/06/08 07:42:49;;;;;;;2.00;1.65;;;;;;;;;;4988589;28;20317;-68
2022/06/08 07:45:14;;;;;;;2.22;1.63;;;;;;;;;;4989817;28;20345;-68
2022/06/08 07:50:32;;;;;;;2.72;1.60;;;;;;;;;;4958305;28;20457;-68
2022/06/08 07:52:57;;;;;;;2.35;1.80;;;;;;;;;;4969288;28;20360;-68
2022/06/08 07:55:23;;;;;;;2.80;1.80;;;;;;;;;;4951813;28;20413;-69
2022/06/08 07:57:50;;;;;;;1.75;1.27;;;;;;;;;;4969277;28;20091;-69
2022/06/08 08:00:17;;;;;;;1.92;1.40;;;;;;;;;;4968886;28;20436;-69
2022/06/08 08:02:42;;;;;;;2.17;1.85;;;;;;;;;;4951398;28;20298;-69
2022/06/08 08:05:12;;;;;;;2.47;1.63;;;;;;;;;;4969239;28;20325;-69
2022/06/08 08:07:41;;;;;;;2.72;1.65;;;;;;;;;;4969314;28;20052;-69
2022/06/08 08:10:11;;;;;;;2.95;1.55;;;;;;;;;;4952442;28;20026;-69
2022/06/08 08:12:37;;;;;;;2.03;1.45;;;;;;;;;;4968949;28;20436;-69
2022/06/08 08:15:03;;;;;;;2.67;1.58;;;;;;;;;;4951941;28;20487;-70
2022/06/08 08:17:29;;;;;;;1.52;1.20;;;;;;;;;;4969249;28;20499;-69
2022/06/08 08:19:54;;;;;;;1.95;1.63;;;;;;;;;;4968938;28;20347;-69
2022/06/08 08:22:21;;;;;;;1.67;1.58;;;;;;;;;;4968942;28;20500;-69
2022/06/08 08:24:46;;;;;;;1.58;1.20;;;;;;;;;;4951600;28;20522;-69
2022/06/08 08:27:12;;;;;;;1.98;1.42;;;;;;;;;;4969322;28;20452;-69
2022/06/08 08:29:37;;;;;;;2.42;1.80;;;;;;;;;;4951770;28;20469;-69
2022/06/08 08:32:03;;;;;;;1.48;1.30;;;;;;;;;;4951495;28;20506;-69
2022/06/08 08:34:29;;;;;;;3.25;1.70;;;;;;;;;;4969096;28;20440;-69
2022/06/08 08:36:54;;;;;;;1.88;1.45;;;;;;;;;;4951513;28;20444;-70
2022/06/08 08:39:20;;;;;;;2.25;1.60;;;;;;;;;;4969662;28;20420;-69
2022/06/08 08:44:36;;;;;;;1.67;1.58;;;;;;;;;;4954428;28;20535;-69
2022/06/08 08:47:02;;;;;;;3.88;1.70;;;;;;;;;;4951448;28;20418;-69
2022/06/08 08:49:30;;;;;;;2.22;1.50;;;;;;;;;;4974070;28;20479;-69
2022/06/08 08:51:59;;;;;;;1.58;1.40;;;;;;;;;;4987407;28;20358;-69
2022/06/08 08:54:30;;;;;;;3.05;1.30;;;;;;;;;;4987149;28;20411;-69
2022/06/08 08:57:19;;;;;;;2.55;1.63;;;;;;;;;;4988400;28;20452;-68
2022/06/08 08:59:49;;;;;;;1.80;1.40;;;;;;;;;;4979044;28;20510;-69
2022/06/08 09:05:13;;;;;;;2.40;1.60;;;;;;;;;;4986958;28;20354;-69
2022/06/08 09:07:38;;;;;;;2.22;1.50;;;;;;;;;;4988350;28;20352;-70
2022/06/08 09:10:04;;;;;;;2.55;1.30;;;;;;;;;;4986852;28;20309;-69
2022/06/08 09:12:29;;;;;;;2.40;1.67;;;;;;;;;;4986451;28;20472;-69
2022/06/08 09:14:58;;;;;;;1.83;1.45;;;;;;;;;;4988661;28;20056;-69
2022/06/08 09:17:32;;;;;;;1.90;1.48;;;;;;;;;;4987101;28;20037;-69
2022/06/08 09:19:58;;;;;;;2.33;1.75;;;;;;;;;;4988402;28;20434;-69
2022/06/08 09:22:27;;;;;;;1.75;1.50;;;;;;;;;;4986329;28;20332;-69
2022/06/08 09:24:59;;;;;;;1.83;1.42;;;;;;;;;;4986810;28;20383;-69
2022/06/08 09:27:38;;;;;;;1.65;1.48;;;;;;;;;;4990321;28;20422;-69
2022/06/08 09:30:07;;;;;;;2.55;1.30;;;;;;;;;;4989828;28;20490;-69
2022/06/08 09:32:39;;;;;;;1.40;1.30;;;;;;;;;;4991954;28;20063;-69
2022/06/08 09:35:35;;;;;;;1.30;1.20;;;;;;;;;;4991831;28;20325;-69
2022/06/08 09:38:04;;;;;;;1.65;1.40;;;;;;;;;;4983737;28;20463;-68
2022/06/08 09:40:37;;;;;;;3.85;1.55;;;;;;;;;;4991723;28;20419;-68
2022/06/08 09:43:15;;;;;;;1.98;1.30;;;;;;;;;;4990547;28;20047;-69
2022/06/08 09:45:53;;;;;;;3.00;1.42;;;;;;;;;;4991598;28;20052;-68
2022/06/08 09:51:52;;;;;;;1.83;1.30;;;;;;;;;;4989793;28;20362;-69
2022/06/08 09:54:36;;;;;;;2.05;1.50;;;;;;;;;;4968856;28;20574;-68
2022/06/08 09:57:08;;;;;;;2.00;1.55;;;;;;;;;;4991318;28;20508;-68
2022/06/08 09:59:57;;;;;;;2.88;2.00;;;;;;;;;;4991507;28;20329;-68
2022/06/08 10:02:54;;;;;;;1.50;1.40;;;;;;;;;;4989752;28;20464;-69
2022/06/08 10:05:25;;;;;;;2.28;1.48;;;;;;;;;;4991165;28;20052;-69
2022/06/08 10:07:58;;;;;;;1.65;1.40;;;;;;;;;;4989684;28;20297;-71
2022/06/08 10:10:31;;;;;;;2.58;1.92;;;;;;;;;;4990836;28;20028;-69
2022/06/08 10:12:59;;;;;;;3.20;2.10;;;;;;;;;;4989537;28;20333;-69
2022/06/08 10:15:42;;;;;;;2.40;1.77;;;;;;;;;;4990625;28;20033;-69
2022/06/08 10:18:14;;;;;;;1.85;1.67;;;;;;;;;;4989952;28;20533;-68
2022/06/08 10:20:44;;;;;;;3.22;2.25;;;;;;;;;;4990983;28;20456;-70
2022/06/08 10:23:31;;;;;;;2.90;2.30;;;;;;;;;;4989090;28;20447;-69
2022/06/08 10:26:03;;;;;;;2.40;1.77;;;;;;;;;;4991102;28;20029;-69
2022/06/08 10:28:38;;;;;;;3.35;1.98;;;;;;;;;;4989075;28;20491;-69
2022/06/08 10:31:21;;;;;;;1.58;1.48;;;;;;;;;;4989081;28;20442;-69
2022/06/08 10:33:52;;;;;;;3.13;2.00;;;;;;;;;;4989504;28;20319;-69
2022/06/08 10:36:18;;;;;;;3.08;2.08;;;;;;;;;;4988859;28;20424;-69
2022/06/08 10:38:44;;;;;;;2.78;1.67;;;;;;;;;;4990218;28;20349;-68
2022/06/08 10:42:39;;;;;;;2.05;1.70;;;;;;;;;;4988987;28;20501;-68
2022/06/08 10:43:55;;;;;;;3.10;1.80;;;;;;;;;;4989866;28;20378;-69
2022/06/08 10:46:51;;;;;;;2.00;1.70;;;;;;;;;;4988884;28;20349;-69
2022/06/08 10:49:39;;;;;;;2.58;1.73;;;;;;;;;;4980966;28;20578;-68
2022/06/08 10:52:17;;;;;;;2.83;1.80;;;;;;;;;;4989763;28;20549;-68
2022/06/08 10:55:07;;;;;;;2.35;1.70;;;;;;;;;;4990641;28;20344;-69
2022/06/08 10:57:35;;;;;;;2.05;1.33;;;;;;;;;;4986769;28;20344;-69
2022/06/08 11:00:47;;;;;;;1.60;1.42;;;;;;;;;;4990181;28;20448;-68
2022/06/08 11:03:42;;;;;;;2.35;1.95;;;;;;;;;;4982578;28;20461;-69
2022/06/08 11:06:31;;;;;;;2.95;1.80;;;;;;;;;;4990382;28;20518;-69
2022/06/08 11:08:57;;;;;;;2.33;1.45;;;;;;;;;;4989827;28;20414;-69
2022/06/08 11:11:41;;;;;;;2.28;1.58;;;;;;;;;;4989649;28;20351;-69
2022/06/08 11:14:51;;;;;;;1.80;1.50;;;;;;;;;;4988598;28;20477;-69
2022/06/08 11:17:36;;;;;;;2.90;1.30;;;;;;;;;;4988582;28;20344;-69
2022/06/08 11:20:17;;;;;;;2.33;1.80;;;;;;;;;;4990038;28;20455;-69
2022/06/08 11:22:53;;;;;;;1.92;1.50;;;;;;;;;;4990708;28;20122;-69
2022/06/08 11:25:32;;;;;;;2.35;1.55;;;;;;;;;;4988832;28;20324;-69
2022/06/08 11:28:16;;;;;;;;;;;;;;;;;;4988627;28;20494;-69
2022/06/08 11:30:41;;;;;;;1.48;1.38;;;;;;;;;;4989274;28;20319;-69
2022/06/08 11:33:14;;;;;;;1.85;1.50;;;;;;;;;;4989868;28;20463;-69
2022/06/08 11:35:50;;;;;;;2.45;1.65;;;;;;;;;;4987761;28;20340;-69
2022/06/08 11:38:27;;;;;;;1.92;1.50;;;;;;;;;;4987453;28;20432;-69
2022/06/08 11:41:00;;;;;;;1.58;1.30;;;;;;;;;;4988216;28;20064;-69
2022/06/08 11:43:31;;;;;;;2.35;1.45;;;;;;;;;;4971914;28;20686;-69
2022/06/08 11:45:58;;;;;;;1.92;1.67;;;;;;;;;;4987992;28;20515;-69
2022/06/08 11:48:28;;;;;;;1.88;1.40;;;;;;;;;;4990968;28;20344;-69
2022/06/08 11:51:00;;;;;;;2.92;1.70;;;;;;;;;;4988820;28;20410;-69
2022/06/08 11:53:27;;;;;;;2.33;1.38;;;;;;;;;;4989218;28;20497;-70
2022/06/08 11:56:24;;;;;;;2.10;1.52;;;;;;;;;;4989833;28;20395;-70
2022/06/08 11:59:03;;;;;;;1.75;1.40;;;;;;;;;;4989717;28;20439;-69
2022/06/08 12:01:32;;;;;;;1.27;1.17;;;;;;;;;;4987549;28;20475;-69
2022/06/08 12:04:04;;;;;;;1.85;1.35;;;;;;;;;;4986988;28;20044;-69
2022/06/08 12:06:33;;;;;;;2.63;1.85;;;;;;;;;;4990329;28;20033;-69
2022/06/08 12:09:07;;;;;;;1.95;1.50;;;;;;;;;;4987260;28;20428;-69
2022/06/08 12:11:33;;;;;;;2.15;1.40;;;;;;;;;;4988883;28;20416;-69
2022/06/08 12:14:37;;;;;;;1.42;1.23;;;;;;;;;;4988111;28;20530;-70
2022/06/08 12:17:09;;;;;;;1.70;1.45;;;;;;;;;;4931321;28;20319;-69
2022/06/08 12:19:47;;;;;;;1.52;1.42;;;;;;;;;;4947036;28;20060;-69
2022/06/08 12:22:32;;;;;;;2.00;1.60;;;;;;;;;;4970892;28;20391;-69
2022/06/08 12:25:17;;;;;;;1.60;1.40;;;;;;;;;;4989001;28;20396;-68
2022/06/08 12:27:51;;;;;;;2.33;1.85;;;;;;;;;;4988444;28;20416;-69
2022/06/08 12:30:25;;;;;;;1.85;1.42;;;;;;;;;;4988632;28;20064;-69
2022/06/08 12:32:53;;;;;;;2.35;2.00;;;;;;;;;;4987211;28;20032;-70
2022/06/08 12:35:25;;;;;;;1.98;1.50;;;;;;;;;;4989863;28;20403;-69
2022/06/08 12:38:04;;;;;;;2.20;1.55;;;;;;;;;;4989561;28;20520;-69
2022/06/08 12:40:31;;;;;;;1.70;1.55;;;;;;;;;;4988815;28;20420;-69
2022/06/08 12:42:57;;;;;;;2.30;1.75;;;;;;;;;;4987255;28;20320;-69
2022/06/08 12:45:36;;;;;;;2.35;1.40;;;;;;;;;;4986779;28;20313;-69
2022/06/08 12:48:16;;;;;;;1.70;1.33;;;;;;;;;;4988526;28;20374;-69
2022/06/08 12:50:42;;;;;;;2.05;1.50;;;;;;;;;;4988259;28;20487;-69
2022/06/08 12:53:07;;;;;;;1.77;1.38;;;;;;;;;;4987138;28;20309;-69
2022/06/08 12:55:36;;;;;;;1.60;1.30;;;;;;;;;;4988902;28;20413;-69
2022/06/08 12:58:02;;;;;;;1.92;1.55;;;;;;;;;;4989241;28;20395;-68
2022/06/08 13:00:30;;;;;;;2.75;2.08;;;;;;;;;;4990579;28;20400;-69
2022/06/08 13:02:59;;;;;;;2.08;1.60;;;;;;;;;;4974720;28;20383;-69
2022/06/08 13:05:31;;;;;;;2.85;1.52;;;;;;;;;;4990452;28;20051;-70
2022/06/08 13:07:58;;;;;;;2.13;1.70;;;;;;;;;;4991073;28;20411;-69
2022/06/08 13:10:25;;;;;;;1.85;1.55;;;;;;;;;;4974129;28;20324;-68
2022/06/08 13:12:58;;;;;;;2.15;1.30;;;;;;;;;;4990799;28;20469;-68
2022/06/08 13:15:29;;;;;;;3.17;1.63;;;;;;;;;;4990572;28;20063;-68
2022/06/08 13:17:56;;;;;;;2.08;1.50;;;;;;;;;;4990767;28;20455;-69
2022/06/08 13:20:30;;;;;;;1.50;1.27;;;;;;;;;;4990451;28;20100;-68
2022/06/08 13:22:56;;;;;;;2.97;1.45;;;;;;;;;;4990442;28;20371;-69
2022/06/08 13:25:23;;;;;;;1.33;1.23;;;;;;;;;;4993385;28;20328;-68
2022/06/08 13:27:50;;;;;;;2.22;1.40;;;;;;;;;;4991382;28;20431;-67
2022/06/08 13:30:19;;;;;;;2.55;1.83;;;;;;;;;;4991075;28;20447;-70
2022/06/08 13:32:47;;;;;;;2.00;1.30;;;;;;;;;;4989936;28;20352;-68
2022/06/08 13:35:14;;;;;;;1.92;1.63;;;;;;;;;;4992603;28;20347;-68
2022/06/08 13:37:43;;;;;;;2.50;1.60;;;;;;;;;;4990199;28;20317;-69
2022/06/08 13:40:23;;;;;;;1.65;1.50;;;;;;;;;;4991435;28;20402;-68
2022/06/08 13:42:49;;;;;;;1.38;1.27;;;;;;;;;;4991701;28;20455;-69
2022/06/08 13:45:21;;;;;;;2.03;1.83;;;;;;;;;;4991985;28;20380;-69
2022/06/08 13:47:53;;;;;;;1.55;1.35;;;;;;;;;;4991546;28;20043;-67
2022/06/08 13:50:36;;;;;;;1.50;1.40;;;;;;;;;;4989774;28;20047;-67
2022/06/08 13:53:03;;;;;;;2.33;1.35;;;;;;;;;;4991649;28;20462;-69
2022/06/08 13:55:44;;;;;;;1.83;1.33;;;;;;;;;;4991934;28;20437;-67
2022/06/08 13:58:12;;;;;;;1.83;1.50;;;;;;;;;;4989738;28;20475;-68
2022/06/08 14:00:43;;;;;;;1.80;1.50;;;;;;;;;;4991733;28;20466;-70
2022/06/08 14:03:15;;;;;;;1.30;1.20;;;;;;;;;;4989880;28;20309;-70
2022/06/08 14:14:00;;;;;;;2.00;1.60;;;;;;;;;;4991634;28;20327;-68
2022/06/08 14:16:25;;;;;;;2.35;1.70;;;;;;;;;;4990752;28;20446;-68
2022/06/08 14:18:53;;;;;;;1.83;1.60;;;;;;;;;;4990629;28;20108;-67
2022/06/08 14:21:19;;;;;;;1.95;1.75;;;;;;;;;;4991420;28;20522;-69
2022/06/08 14:23:47;;;;;;;1.80;1.55;;;;;;;;;;4989288;28;20455;-68
2022/06/08 14:26:17;;;;;;;2.63;1.60;;;;;;;;;;4989212;28;20432;-69
2022/06/08 14:28:46;;;;;;;2.20;1.67;;;;;;;;;;4989183;28;20382;-68
2022/06/08 14:31:16;;;;;;;1.85;1.65;;;;;;;;;;4990219;28;20460;-68
2022/06/08 14:33:42;;;;;;;1.95;1.52;;;;;;;;;;4989330;28;20317;-67
2022/06/08 14:36:07;;;;;;;2.03;1.60;;;;;;;;;;4989621;28;20047;-68
2022/06/08 14:38:35;;;;;;;1.67;1.50;;;;;;;;;;4989367;28;20363;-67
2022/06/08 14:41:02;;;;;;;3.67;1.50;;;;;;;;;;4991590;28;20328;-68
2022/06/08 14:43:28;;;;;;;1.45;1.30;;;;;;;;;;4988690;28;20447;-67
2022/06/08 14:45:54;;;;;;;2.17;1.77;;;;;;;;;;4988849;28;20443;-69
2022/06/08 14:48:35;;;;;;;1.70;1.42;;;;;;;;;;4990102;28;20519;-68
2022/06/08 14:51:00;;;;;;;2.22;1.60;;;;;;;;;;4988211;28;20371;-67
2022/06/08 14:53:27;;;;;;;1.63;1.40;;;;;;;;;;4990772;28;20321;-67
2022/06/08 14:58:38;;;;;;;2.17;1.38;;;;;;;;;;4990187;28;20416;-67
2022/06/08 15:01:08;;;;;;;1.30;1.20;;;;;;;;;;4988690;28;20432;-66
2022/06/08 15:03:34;;;;;;;2.92;1.70;;;;;;;;;;4988141;28;20431;-67
2022/06/08 15:06:02;;;;;;;1.83;1.45;;;;;;;;;;4988588;28;20416;-66
2022/06/08 15:08:27;;;;;;;1.33;1.23;;;;;;;;;;4989913;28;20469;-67
2022/06/08 15:13:41;;;;;;;1.98;1.50;;;;;;;;;;4989801;28;20466;-67
2022/06/08 15:16:09;;;;;;;2.28;1.55;;;;;;;;;;4988107;28;20343;-68
2022/06/08 15:18:34;;;;;;;1.95;1.48;;;;;;;;;;4988726;28;20439;-67
2022/06/08 15:21:00;;;;;;;1.80;1.52;;;;;;;;;;4989784;28;20475;-66
2022/06/08 15:23:26;;;;;;;2.92;1.50;;;;;;;;;;4989799;28;20025;-66
2022/06/08 15:25:54;;;;;;;9.65;1.60;;;;;;;;;;4989471;28;20496;-67
2022/06/08 15:28:24;;;;;;;1.90;1.65;;;;;;;;;;4987750;28;20494;-66
2022/06/08 15:30:50;;;;;;;1.67;1.48;;;;;;;;;;4987914;28;20379;-66
2022/06/08 15:33:18;;;;;;;1.65;1.38;;;;;;;;;;4987995;28;20413;-67
2022/06/08 15:36:19;;;;;;;1.90;1.27;;;;;;;;;;4988565;28;20432;-67